Time;durP1;ratioP1;P1;durP2;ratioP2;P2;SDS_P1;SDS_P2;PMS_P1;PMS_P2;Temp;Humidity;BMP_temperature;BMP_pressure;BME280_temperature;BME280_humidity;BME280_pressure;Samples;Min_cycle;Max_cycle;Signal;HPM_P1;HPM_P2
2022/10/21 00:01:16;;;;;;;15.23;8.95;;;;;;;;;;5010153;28;20029;-79
2022/10/21 00:03:42;;;;;;;12.75;8.65;;;;;;;;;;5012918;28;20075;-77
2022/10/21 00:06:08;;;;;;;11.55;8.23;;;;;;;;;;5008708;28;20052;-78
2022/10/21 00:08:34;;;;;;;11.88;8.50;;;;;;;;;;5012199;28;20022;-77
2022/10/21 00:11:01;;;;;;;14.73;8.63;;;;;;;;;;5013009;28;20392;-78
2022/10/21 00:13:28;;;;;;;15.05;8.55;;;;;;;;;;5012376;28;20022;-78
2022/10/21 00:15:57;;;;;;;13.93;8.05;;;;;;;;;;5012891;28;20050;-78
2022/10/21 00:18:24;;;;;;;13.10;8.60;;;;;;;;;;5011776;28;20018;-78
2022/10/21 00:20:50;;;;;;;13.57;8.60;;;;;;;;;;5012517;28;20026;-78
2022/10/21 00:23:17;;;;;;;18.55;8.75;;;;;;;;;;5009363;28;20542;-78
2022/10/21 00:25:43;;;;;;;14.98;8.50;;;;;;;;;;5012235;28;20116;-78
2022/10/21 00:28:09;;;;;;;10.55;8.07;;;;;;;;;;5011922;28;20104;-77
2022/10/21 00:30:35;;;;;;;12.30;8.23;;;;;;;;;;5012333;28;20026;-78
2022/10/21 00:33:01;;;;;;;13.35;8.32;;;;;;;;;;5012134;28;20504;-78
2022/10/21 00:35:27;;;;;;;15.85;8.77;;;;;;;;;;5010771;28;20018;-78
2022/10/21 00:37:53;;;;;;;12.85;7.63;;;;;;;;;;5011931;28;20381;-79
2022/10/21 00:40:19;;;;;;;14.45;7.97;;;;;;;;;;5012440;28;20041;-79
2022/10/21 00:42:45;;;;;;;12.07;8.30;;;;;;;;;;5013621;28;20033;-77
2022/10/21 00:45:15;;;;;;;12.10;8.45;;;;;;;;;;5012128;28;20097;-77
2022/10/21 00:47:43;;;;;;;12.10;8.15;;;;;;;;;;5004206;28;20109;-78
2022/10/21 00:50:18;;;;;;;13.52;8.63;;;;;;;;;;5011783;28;20025;-78
2022/10/21 00:52:44;;;;;;;12.35;8.68;;;;;;;;;;5011870;28;20117;-78
2022/10/21 00:55:10;;;;;;;11.30;8.20;;;;;;;;;;5008027;28;20109;-78
2022/10/21 00:57:36;;;;;;;21.02;9.43;;;;;;;;;;5011642;28;20081;-78
2022/10/21 01:00:04;;;;;;;13.68;9.90;;;;;;;;;;5011533;28;20072;-78
2022/10/21 01:02:30;;;;;;;15.55;9.27;;;;;;;;;;5012214;28;20021;-78
2022/10/21 01:04:57;;;;;;;15.05;10.05;;;;;;;;;;5005812;28;20517;-78
2022/10/21 01:07:24;;;;;;;12.35;9.68;;;;;;;;;;5010139;28;20555;-77
2022/10/21 01:09:50;;;;;;;15.68;10.88;;;;;;;;;;5011364;28;20062;-77
2022/10/21 01:12:34;;;;;;;13.68;10.43;;;;;;;;;;5008697;28;20042;-77
2022/10/21 01:15:09;;;;;;;14.07;9.73;;;;;;;;;;5011415;28;20484;-77
2022/10/21 01:17:49;;;;;;;14.15;8.98;;;;;;;;;;5011341;28;20034;-77
2022/10/21 01:20:20;;;;;;;17.55;10.25;;;;;;;;;;5011464;28;20025;-77
2022/10/21 01:23:04;;;;;;;15.65;10.05;;;;;;;;;;5011689;28;20021;-78
2022/10/21 01:25:45;;;;;;;12.95;8.63;;;;;;;;;;4999207;28;20105;-78
2022/10/21 01:28:30;;;;;;;18.15;10.15;;;;;;;;;;5007412;28;20044;-77
2022/10/21 01:31:15;;;;;;;13.57;9.35;;;;;;;;;;4998613;28;20046;-78
2022/10/21 01:34:01;;;;;;;14.35;9.98;;;;;;;;;;5014127;28;20037;-78
2022/10/21 01:36:27;;;;;;;15.27;8.75;;;;;;;;;;5016537;28;20088;-78
2022/10/21 01:39:04;;;;;;;16.17;10.20;;;;;;;;;;5045842;23;20040;-79
2022/10/21 01:41:35;;;;;;;15.82;8.82;;;;;;;;;;5042716;28;20026;-79
2022/10/21 01:44:04;;;;;;;16.98;9.73;;;;;;;;;;5050309;28;20514;-80
2022/10/21 01:46:36;;;;;;;13.75;9.20;;;;;;;;;;5069445;28;20040;-82
2022/10/21 01:49:06;;;;;;;16.10;8.90;;;;;;;;;;5043333;28;20057;-84
2022/10/21 01:51:34;;;;;;;17.13;9.43;;;;;;;;;;5076881;28;20028;-84
2022/10/21 01:54:02;;;;;;;14.32;9.05;;;;;;;;;;5074602;28;20033;-79
2022/10/21 01:56:29;;;;;;;11.80;8.50;;;;;;;;;;5039369;28;20021;-80
2022/10/21 01:58:55;;;;;;;13.65;8.52;;;;;;;;;;5039464;28;20061;-80
2022/10/21 02:01:22;;;;;;;15.93;9.48;;;;;;;;;;5058858;28;20109;-80
2022/10/21 02:03:50;;;;;;;14.45;9.00;;;;;;;;;;5060098;28;20036;-81
2022/10/21 02:06:16;;;;;;;12.18;8.45;;;;;;;;;;5059976;28;20025;-80
2022/10/21 02:08:43;;;;;;;12.10;8.60;;;;;;;;;;5024486;28;20108;-79
2022/10/21 02:11:10;;;;;;;13.63;8.77;;;;;;;;;;5058571;28;20021;-79
2022/10/21 02:13:55;;;;;;;13.77;9.23;;;;;;;;;;5048574;28;20028;-81
2022/10/21 02:16:22;;;;;;;12.50;8.60;;;;;;;;;;5059731;28;20025;-80
2022/10/21 02:18:48;;;;;;;15.05;9.45;;;;;;;;;;5061516;28;20077;-79
2022/10/21 02:21:17;;;;;;;16.63;9.00;;;;;;;;;;5060542;28;20082;-79
2022/10/21 02:23:54;;;;;;;14.30;9.00;;;;;;;;;;5060928;28;20025;-80
2022/10/21 02:26:21;;;;;;;14.50;9.45;;;;;;;;;;5042376;28;20052;-82
2022/10/21 02:28:47;;;;;;;15.40;9.60;;;;;;;;;;5060853;28;20032;-80
2022/10/21 02:31:29;;;;;;;13.70;9.77;;;;;;;;;;5061728;28;20017;-80
2022/10/21 02:34:11;;;;;;;12.50;9.48;;;;;;;;;;5061158;28;20516;-80
2022/10/21 02:36:42;;;;;;;15.68;8.93;;;;;;;;;;5059845;28;20024;-81
2022/10/21 02:39:19;;;;;;;17.88;10.57;;;;;;;;;;5062625;28;20457;-81
2022/10/21 02:41:47;;;;;;;14.40;10.13;;;;;;;;;;5046082;28;20042;-81
2022/10/21 02:44:13;;;;;;;18.40;10.95;;;;;;;;;;5060059;28;20136;-78
2022/10/21 02:46:40;;;;;;;19.65;11.27;;;;;;;;;;5057851;28;20016;-81
2022/10/21 02:49:06;;;;;;;19.42;10.48;;;;;;;;;;5055329;28;20127;-79
2022/10/21 02:51:32;;;;;;;16.90;11.15;;;;;;;;;;5056009;28;20489;-78
2022/10/21 02:53:58;;;;;;;16.27;10.88;;;;;;;;;;5054022;28;20074;-78
2022/10/21 02:56:25;;;;;;;19.02;12.10;;;;;;;;;;5054363;28;20116;-75
2022/10/21 02:58:51;;;;;;;15.82;10.95;;;;;;;;;;5059174;28;20021;-80
2022/10/21 03:01:17;;;;;;;17.05;11.13;;;;;;;;;;5059912;28;20021;-80
2022/10/21 03:03:43;;;;;;;14.73;10.73;;;;;;;;;;5023381;28;20087;-79
2022/10/21 03:06:09;;;;;;;16.08;10.25;;;;;;;;;;5053808;28;20029;-78
2022/10/21 03:08:35;;;;;;;13.32;10.15;;;;;;;;;;5053572;28;20035;-78
2022/10/21 03:11:01;;;;;;;16.42;10.88;;;;;;;;;;5054608;28;20021;-79
2022/10/21 03:13:27;;;;;;;15.63;10.80;;;;;;;;;;5057690;28;20051;-81
2022/10/21 03:15:53;;;;;;;19.52;11.00;;;;;;;;;;5058256;28;20094;-79
2022/10/21 03:18:19;;;;;;;21.55;12.70;;;;;;;;;;5053560;28;20479;-78
2022/10/21 03:20:48;;;;;;;18.23;11.18;;;;;;;;;;5053436;28;20052;-78
2022/10/21 03:23:14;;;;;;;15.40;11.13;;;;;;;;;;5035227;28;20544;-79
2022/10/21 03:25:40;;;;;;;21.20;12.57;;;;;;;;;;5053546;28;20032;-81
2022/10/21 03:28:06;;;;;;;19.30;12.57;;;;;;;;;;5053135;28;20036;-79
2022/10/21 03:30:32;;;;;;;17.58;11.05;;;;;;;;;;5055492;28;20040;-79
2022/10/21 03:32:58;;;;;;;17.48;11.35;;;;;;;;;;5057083;28;20533;-80
2022/10/21 03:35:24;;;;;;;20.77;12.13;;;;;;;;;;5060531;28;20021;-79
2022/10/21 03:37:50;;;;;;;18.08;12.40;;;;;;;;;;5060777;28;20029;-79
2022/10/21 03:40:16;;;;;;;31.98;13.15;;;;;;;;;;5060217;28;20088;-80
2022/10/21 03:42:42;;;;;;;15.35;11.20;;;;;;;;;;5060671;28;20052;-79
2022/10/21 03:45:08;;;;;;;17.92;12.13;;;;;;;;;;5056733;28;20013;-80
2022/10/21 03:47:34;;;;;;;15.77;11.50;;;;;;;;;;5054794;28;20024;-80
2022/10/21 03:50:00;;;;;;;17.95;11.95;;;;;;;;;;5054196;28;20390;-79
2022/10/21 03:52:26;;;;;;;22.55;13.55;;;;;;;;;;5054637;28;20021;-80
2022/10/21 03:54:52;;;;;;;21.95;12.63;;;;;;;;;;5053475;28;20024;-80
2022/10/21 03:57:18;;;;;;;21.45;12.95;;;;;;;;;;5035997;28;20594;-78
2022/10/21 03:59:44;;;;;;;19.88;12.30;;;;;;;;;;5052834;28;20037;-80
2022/10/21 04:02:10;;;;;;;18.13;12.57;;;;;;;;;;5035255;28;20024;-80
2022/10/21 04:04:36;;;;;;;21.35;12.63;;;;;;;;;;5053728;28;20051;-81
2022/10/21 04:07:02;;;;;;;17.90;11.20;;;;;;;;;;5053833;28;20032;-79
2022/10/21 04:09:28;;;;;;;21.65;12.98;;;;;;;;;;5054533;28;20052;-80
2022/10/21 04:11:54;;;;;;;22.80;14.68;;;;;;;;;;5054382;28;20033;-81
2022/10/21 04:14:20;;;;;;;19.88;13.55;;;;;;;;;;5055519;28;20479;-81
2022/10/21 04:16:46;;;;;;;20.48;13.20;;;;;;;;;;5039530;28;20398;-80
2022/10/21 04:19:16;;;;;;;18.67;11.82;;;;;;;;;;5055735;28;20029;-80
2022/10/21 04:21:42;;;;;;;22.33;12.57;;;;;;;;;;5055295;28;20052;-79
2022/10/21 04:24:08;;;;;;;24.23;13.98;;;;;;;;;;5055092;28;20582;-78
2022/10/21 04:26:34;;;;;;;24.05;14.45;;;;;;;;;;5059010;28;20025;-79
2022/10/21 04:29:00;;;;;;;20.52;13.48;;;;;;;;;;5054850;28;20079;-79
2022/10/21 04:31:26;;;;;;;19.15;13.32;;;;;;;;;;5065691;28;20073;-79
2022/10/21 04:33:52;;;;;;;17.75;13.43;;;;;;;;;;5053429;28;20032;-79
2022/10/21 04:36:18;;;;;;;20.33;13.98;;;;;;;;;;5054787;28;20025;-79
2022/10/21 04:38:44;;;;;;;21.65;14.35;;;;;;;;;;5036559;28;20040;-79
2022/10/21 04:41:10;;;;;;;21.95;12.95;;;;;;;;;;5056199;28;20033;-79
2022/10/21 04:43:37;;;;;;;20.80;13.43;;;;;;;;;;5054736;28;20033;-79
2022/10/21 04:46:03;;;;;;;19.45;13.38;;;;;;;;;;5052634;28;20036;-80
2022/10/21 04:48:29;;;;;;;19.58;14.00;;;;;;;;;;5052610;28;20398;-79
2022/10/21 04:50:55;;;;;;;21.63;14.20;;;;;;;;;;5052869;28;20029;-79
2022/10/21 04:53:21;;;;;;;23.35;15.30;;;;;;;;;;5056365;28;20490;-79
2022/10/21 04:55:51;;;;;;;25.38;14.20;;;;;;;;;;5054863;28;20017;-79
2022/10/21 04:58:17;;;;;;;19.98;14.07;;;;;;;;;;5064534;28;20410;-81
2022/10/21 05:00:43;;;;;;;22.65;14.45;;;;;;;;;;5067988;28;20110;-80
2022/10/21 05:03:09;;;;;;;21.48;14.05;;;;;;;;;;5052318;28;20391;-79
2022/10/21 05:05:35;;;;;;;22.25;13.77;;;;;;;;;;5051929;28;20091;-80
2022/10/21 05:08:01;;;;;;;21.63;15.35;;;;;;;;;;5052423;28;20025;-80
2022/10/21 05:10:29;;;;;;;21.42;13.80;;;;;;;;;;5035722;28;20067;-80
2022/10/21 05:12:55;;;;;;;25.75;14.85;;;;;;;;;;5054083;28;20025;-81
2022/10/21 05:15:21;;;;;;;20.38;14.15;;;;;;;;;;5037036;28;20044;-80
2022/10/21 05:17:47;;;;;;;20.77;14.77;;;;;;;;;;5061255;28;20475;-81
2022/10/21 05:20:13;;;;;;;29.55;15.95;;;;;;;;;;5063182;28;20025;-81
2022/10/21 05:22:39;;;;;;;23.17;16.25;;;;;;;;;;5060342;28;20032;-82
2022/10/21 05:25:05;;;;;;;23.50;15.32;;;;;;;;;;5053899;28;20021;-80
2022/10/21 05:27:31;;;;;;;27.08;17.67;;;;;;;;;;5055898;28;20021;-80
2022/10/21 05:29:57;;;;;;;23.77;15.90;;;;;;;;;;5038633;28;20025;-78
2022/10/21 05:32:23;;;;;;;21.60;15.77;;;;;;;;;;5053155;28;20017;-78
2022/10/21 05:34:49;;;;;;;23.27;16.25;;;;;;;;;;5053262;28;20471;-80
2022/10/21 05:37:15;;;;;;;20.02;15.15;;;;;;;;;;5052232;28;20163;-76
2022/10/21 05:39:41;;;;;;;20.02;15.07;;;;;;;;;;5052443;28;20507;-78
2022/10/21 05:42:07;;;;;;;20.83;15.35;;;;;;;;;;5052208;28;20021;-79
2022/10/21 05:44:33;;;;;;;23.02;14.23;;;;;;;;;;5052726;28;20511;-80
2022/10/21 05:46:59;;;;;;;19.17;13.77;;;;;;;;;;5034886;28;20028;-79
2022/10/21 05:49:25;;;;;;;22.73;14.13;;;;;;;;;;5052831;28;20091;-80
2022/10/21 05:51:51;;;;;;;25.63;13.73;;;;;;;;;;5053926;28;20048;-77
2022/10/21 05:54:17;;;;;;;19.55;12.95;;;;;;;;;;5053115;28;20025;-80
2022/10/21 05:56:43;;;;;;;19.58;14.00;;;;;;;;;;5051959;28;20021;-79
2022/10/21 05:59:09;;;;;;;20.23;14.13;;;;;;;;;;5052052;28;20048;-80
2022/10/21 06:01:35;;;;;;;16.42;13.13;;;;;;;;;;5039186;28;20036;-79
2022/10/21 06:04:01;;;;;;;18.02;13.35;;;;;;;;;;5039175;28;20488;-79
2022/10/21 06:06:27;;;;;;;22.73;13.25;;;;;;;;;;5052851;28;20437;-79
2022/10/21 06:08:53;;;;;;;23.40;13.75;;;;;;;;;;5052667;28;20450;-80
2022/10/21 06:11:19;;;;;;;20.23;13.13;;;;;;;;;;5052572;28;20052;-80
2022/10/21 06:13:46;;;;;;;20.42;15.35;;;;;;;;;;5055198;28;20036;-79
2022/10/21 06:16:12;;;;;;;24.23;14.05;;;;;;;;;;5062985;28;20021;-80
2022/10/21 06:18:39;;;;;;;18.17;13.98;;;;;;;;;;5061314;28;20085;-80
2022/10/21 06:21:05;;;;;;;18.33;13.50;;;;;;;;;;5062223;28;20080;-78
2022/10/21 06:23:31;;;;;;;22.30;13.98;;;;;;;;;;5042262;28;20319;-80
2022/10/21 06:25:58;;;;;;;19.55;12.73;;;;;;;;;;5058299;28;20033;-78
2022/10/21 06:28:25;;;;;;;26.23;14.27;;;;;;;;;;5048610;28;20039;-75
2022/10/21 06:30:51;;;;;;;21.73;14.05;;;;;;;;;;5050808;28;20029;-78
2022/10/21 06:33:17;;;;;;;17.95;12.77;;;;;;;;;;5069928;28;20021;-77
2022/10/21 06:35:43;;;;;;;19.05;13.23;;;;;;;;;;5056485;28;20041;-82
2022/10/21 06:38:09;;;;;;;21.35;13.60;;;;;;;;;;5050749;28;20082;-79
2022/10/21 06:40:38;;;;;;;21.25;13.52;;;;;;;;;;5046723;28;20148;-73
2022/10/21 06:43:05;;;;;;;20.02;12.23;;;;;;;;;;5046762;28;20020;-80
2022/10/21 06:45:31;;;;;;;21.10;13.38;;;;;;;;;;5040719;28;20044;-78
2022/10/21 06:47:57;;;;;;;17.77;13.02;;;;;;;;;;5055593;28;20018;-77
2022/10/21 06:50:23;;;;;;;20.17;13.20;;;;;;;;;;5036483;28;20017;-77
2022/10/21 06:52:49;;;;;;;17.15;12.27;;;;;;;;;;5055754;28;20052;-75
2022/10/21 06:55:16;;;;;;;20.42;12.63;;;;;;;;;;5054629;28;20024;-75
2022/10/21 06:57:42;;;;;;;19.90;12.82;;;;;;;;;;5054836;28;20049;-76
2022/10/21 07:00:08;;;;;;;17.73;11.73;;;;;;;;;;5053605;28;20024;-73
2022/10/21 07:02:34;;;;;;;20.02;13.63;;;;;;;;;;5054161;28;20029;-76
2022/10/21 07:05:00;;;;;;;17.60;12.93;;;;;;;;;;5053924;28;20045;-76
2022/10/21 07:07:26;;;;;;;19.75;12.50;;;;;;;;;;5054079;28;20090;-75
2022/10/21 07:09:56;;;;;;;21.27;12.32;;;;;;;;;;5035278;28;20029;-76
2022/10/21 07:12:30;;;;;;;15.73;11.68;;;;;;;;;;5056107;28;20020;-84
2022/10/21 07:14:56;;;;;;;18.17;12.20;;;;;;;;;;5060154;28;20379;-83
2022/10/21 07:17:22;;;;;;;22.50;12.48;;;;;;;;;;5063044;28;20337;-85
2022/10/21 07:19:48;;;;;;;18.08;12.23;;;;;;;;;;5056713;28;20383;-78
2022/10/21 07:22:16;;;;;;;18.17;12.15;;;;;;;;;;5060487;28;20025;-79
2022/10/21 07:24:42;;;;;;;14.75;12.07;;;;;;;;;;5056926;28;20017;-81
2022/10/21 07:27:08;;;;;;;19.23;12.60;;;;;;;;;;5066800;28;20441;-79
2022/10/21 07:29:34;;;;;;;20.90;12.85;;;;;;;;;;5040380;28;20510;-81
2022/10/21 07:32:00;;;;;;;18.83;12.73;;;;;;;;;;5062199;28;20024;-82
2022/10/21 07:34:26;;;;;;;19.92;12.55;;;;;;;;;;5063244;28;20047;-83
2022/10/21 07:36:53;;;;;;;16.40;11.98;;;;;;;;;;5055424;28;20383;-81
2022/10/21 07:39:20;;;;;;;16.60;12.20;;;;;;;;;;5037991;28;20032;-81
2022/10/21 07:41:53;;;;;;;16.67;10.95;;;;;;;;;;5056815;28;20020;-81
2022/10/21 07:44:20;;;;;;;17.27;11.20;;;;;;;;;;5057065;28;20380;-81
2022/10/21 07:46:47;;;;;;;15.65;11.18;;;;;;;;;;5055871;28;20145;-80
2022/10/21 07:49:14;;;;;;;17.27;11.90;;;;;;;;;;5038001;28;20036;-80
2022/10/21 07:51:40;;;;;;;17.38;11.95;;;;;;;;;;5055800;28;20100;-80
2022/10/21 07:54:07;;;;;;;17.65;12.90;;;;;;;;;;5056260;28;20025;-79
2022/10/21 07:56:35;;;;;;;18.05;12.05;;;;;;;;;;5037635;28;20028;-80
2022/10/21 07:59:01;;;;;;;19.17;11.98;;;;;;;;;;5055575;28;20359;-80
2022/10/21 08:01:35;;;;;;;15.93;12.25;;;;;;;;;;5039240;28;20025;-83
2022/10/21 08:04:02;;;;;;;14.40;11.85;;;;;;;;;;5040947;28;20055;-83
2022/10/21 08:06:28;;;;;;;17.10;11.77;;;;;;;;;;5044344;28;20021;-82
2022/10/21 08:08:58;;;;;;;21.63;13.27;;;;;;;;;;5056830;28;20096;-82
2022/10/21 08:11:28;;;;;;;14.25;12.15;;;;;;;;;;5058269;28;20116;-83
2022/10/21 08:13:55;;;;;;;14.80;11.27;;;;;;;;;;5060069;28;20164;-81
2022/10/21 08:16:21;;;;;;;16.25;11.80;;;;;;;;;;5059010;28;20081;-81
2022/10/21 08:18:47;;;;;;;15.32;11.23;;;;;;;;;;5040212;28;20036;-81
2022/10/21 08:21:13;;;;;;;29.85;13.13;;;;;;;;;;5057635;28;20116;-81
2022/10/21 08:23:39;;;;;;;15.85;11.45;;;;;;;;;;5059688;28;20056;-81
2022/10/21 08:26:09;;;;;;;16.52;11.45;;;;;;;;;;5059612;28;20083;-79
2022/10/21 08:28:35;;;;;;;21.55;11.98;;;;;;;;;;5054333;28;20086;-81
2022/10/21 08:31:18;;;;;;;17.00;10.98;;;;;;;;;;5038443;28;20028;-78
2022/10/21 08:33:44;;;;;;;11.02;9.18;;;;;;;;;;5055133;28;20104;-80
2022/10/21 08:36:17;;;;;;;14.00;10.90;;;;;;;;;;5056367;28;20327;-79
2022/10/21 08:38:43;;;;;;;16.48;10.52;;;;;;;;;;5054619;28;20033;-81
2022/10/21 08:41:12;;;;;;;13.73;9.65;;;;;;;;;;5058975;28;20039;-80
2022/10/21 08:43:39;;;;;;;15.50;10.13;;;;;;;;;;5055428;28;20025;-80
2022/10/21 08:46:09;;;;;;;17.77;10.18;;;;;;;;;;5056991;28;20025;-79
2022/10/21 08:48:55;;;;;;;14.10;10.05;;;;;;;;;;5057311;28;20036;-81
2022/10/21 08:51:23;;;;;;;13.77;10.02;;;;;;;;;;5059906;28;20029;-81
2022/10/21 08:53:50;;;;;;;13.48;9.82;;;;;;;;;;5038057;28;20024;-83
2022/10/21 08:56:17;;;;;;;16.35;9.60;;;;;;;;;;5057073;28;20059;-81
2022/10/21 08:58:45;;;;;;;13.30;9.88;;;;;;;;;;5054435;28;20364;-80
2022/10/21 09:01:20;;;;;;;15.40;10.15;;;;;;;;;;5054584;28;20025;-80
2022/10/21 09:03:53;;;;;;;16.15;10.18;;;;;;;;;;5044999;28;20025;-80
2022/10/21 09:06:27;;;;;;;14.50;9.77;;;;;;;;;;5059314;28;20025;-80
2022/10/21 09:09:10;;;;;;;20.40;9.98;;;;;;;;;;5055946;28;20021;-80
2022/10/21 09:11:55;;;;;;;14.98;9.68;;;;;;;;;;5056272;28;20021;-81
2022/10/21 09:14:30;;;;;;;12.95;9.55;;;;;;;;;;5041447;28;20033;-82
2022/10/21 09:17:05;;;;;;;15.73;10.02;;;;;;;;;;5042679;28;20024;-80
2022/10/21 09:19:52;;;;;;;17.40;10.25;;;;;;;;;;5054863;28;20036;-80
2022/10/21 09:22:33;;;;;;;15.30;9.93;;;;;;;;;;5045458;28;20037;-81
2022/10/21 09:25:17;;;;;;;14.57;10.52;;;;;;;;;;5069131;28;20112;-80
2022/10/21 09:27:43;;;;;;;16.50;10.65;;;;;;;;;;5081588;28;20032;-80
2022/10/21 09:30:15;;;;;;;17.63;10.85;;;;;;;;;;5044610;28;20040;-80
2022/10/21 09:32:42;;;;;;;13.93;10.75;;;;;;;;;;5057964;28;20455;-81
2022/10/21 09:35:24;;;;;;;13.95;11.00;;;;;;;;;;5039330;28;20489;-82
2022/10/21 09:37:53;;;;;;;13.88;10.05;;;;;;;;;;5062635;28;20079;-82
2022/10/21 09:40:23;;;;;;;13.52;10.52;;;;;;;;;;5058418;28;20098;-81
2022/10/21 09:42:50;;;;;;;13.25;10.43;;;;;;;;;;5043319;28;20040;-82
2022/10/21 09:45:33;;;;;;;12.93;10.38;;;;;;;;;;5045115;28;20052;-81
2022/10/21 09:48:24;;;;;;;18.77;12.38;;;;;;;;;;5048388;28;20033;-84
2022/10/21 09:51:03;;;;;;;14.93;10.63;;;;;;;;;;5045299;28;20051;-82
2022/10/21 09:53:34;;;;;;;14.27;10.38;;;;;;;;;;5065386;28;20017;-81
2022/10/21 09:56:06;;;;;;;13.30;10.90;;;;;;;;;;5051989;28;20013;-82
2022/10/21 09:58:39;;;;;;;12.23;10.95;;;;;;;;;;5061617;28;20028;-82
2022/10/21 10:01:06;;;;;;;18.50;11.65;;;;;;;;;;5043609;28;20032;-82
2022/10/21 10:03:34;;;;;;;15.07;10.88;;;;;;;;;;5045138;28;20104;-82
2022/10/21 10:06:01;;;;;;;14.68;10.18;;;;;;;;;;5067974;28;20029;-82
2022/10/21 10:08:29;;;;;;;28.17;11.95;;;;;;;;;;5043086;28;20561;-81
2022/10/21 10:11:11;;;;;;;14.63;10.13;;;;;;;;;;5059841;28;20021;-81
2022/10/21 10:13:41;;;;;;;15.38;10.73;;;;;;;;;;5061112;28;20086;-81
2022/10/21 10:16:13;;;;;;;16.40;8.87;;;;;;;;;;5060957;28;20017;-82
2022/10/21 10:18:40;;;;;;;16.65;9.52;;;;;;;;;;5061665;28;20036;-82
2022/10/21 10:21:19;;;;;;;11.98;8.82;;;;;;;;;;5043493;28;20039;-82
2022/10/21 10:23:46;;;;;;;19.38;9.73;;;;;;;;;;5044078;28;20147;-82
2022/10/21 10:26:17;;;;;;;19.38;9.63;;;;;;;;;;5043932;28;20086;-82
2022/10/21 10:28:53;;;;;;;13.63;9.43;;;;;;;;;;5043830;28;20028;-82
2022/10/21 10:31:27;;;;;;;17.08;9.35;;;;;;;;;;5063268;28;20021;-82
2022/10/21 10:33:59;;;;;;;11.70;9.35;;;;;;;;;;5071099;28;20036;-84
2022/10/21 10:36:29;;;;;;;12.27;9.20;;;;;;;;;;5072343;28;20017;-81
2022/10/21 10:38:56;;;;;;;19.42;10.45;;;;;;;;;;5053755;28;20082;-82
2022/10/21 10:41:28;;;;;;;13.57;9.60;;;;;;;;;;5071890;28;20071;-82
2022/10/21 10:43:57;;;;;;;15.40;9.82;;;;;;;;;;5071284;28;20025;-80
2022/10/21 10:46:33;;;;;;;14.45;9.43;;;;;;;;;;5026225;28;20202;-81
2022/10/21 10:49:15;;;;;;;18.13;10.30;;;;;;;;;;5042165;28;20052;-82
2022/10/21 10:52:03;;;;;;;13.90;10.32;;;;;;;;;;5042253;28;20017;-83
2022/10/21 10:54:37;;;;;;;12.68;9.93;;;;;;;;;;5062439;28;20037;-81
2022/10/21 10:57:26;;;;;;;15.40;11.25;;;;;;;;;;5031909;28;20053;-82
2022/10/21 11:00:11;;;;;;;13.30;9.68;;;;;;;;;;5058703;28;20044;-82
2022/10/21 11:06:05;;;;;;;14.57;10.45;;;;;;;;;;5060203;28;20028;-82
2022/10/21 11:08:50;;;;;;;15.48;10.25;;;;;;;;;;5041951;28;20100;-81
2022/10/21 11:11:28;;;;;;;15.27;10.57;;;;;;;;;;5047426;28;20369;-82
2022/10/21 11:14:07;;;;;;;14.55;10.43;;;;;;;;;;5043261;28;20328;-82
2022/10/21 11:16:34;;;;;;;17.48;10.93;;;;;;;;;;5042852;28;20027;-83
2022/10/21 11:19:08;;;;;;;14.63;11.27;;;;;;;;;;5059889;28;20024;-82
2022/10/21 11:21:56;;;;;;;14.95;11.10;;;;;;;;;;5042073;28;20096;-81
2022/10/21 11:27:49;;;;;;;12.73;11.25;;;;;;;;;;5047263;28;20028;-82
2022/10/21 11:30:30;;;;;;;14.98;11.60;;;;;;;;;;5059942;28;20040;-80
2022/10/21 11:33:11;;;;;;;17.95;11.98;;;;;;;;;;5050717;28;20052;-82
2022/10/21 11:36:06;;;;;;;;;;;;;;;;;;;;;
2022/10/21 11:38:39;;;;;;;18.88;11.13;;;;;;;;;;5074171;28;20052;-84
2022/10/21 11:41:29;;;;;;;16.88;10.90;;;;;;;;;;5044832;28;20040;-81
2022/10/21 11:44:23;;;;;;;18.75;11.65;;;;;;;;;;5062588;28;20041;-81
2022/10/21 11:47:18;;;;;;;15.63;11.77;;;;;;;;;;5073391;28;20029;-85
2022/10/21 11:49:49;;;;;;;15.32;12.63;;;;;;;;;;5078224;28;20032;-83
2022/10/21 11:52:51;;;;;;;18.60;12.23;;;;;;;;;;5060566;28;20080;-85
2022/10/21 11:55:41;;;;;;;17.48;13.05;;;;;;;;;;4994486;28;20026;-82
2022/10/21 11:58:33;;;;;;;18.25;13.55;;;;;;;;;;5054308;28;20033;-81
2022/10/21 12:01:31;;;;;;;17.52;13.40;;;;;;;;;;5050333;28;20037;-79
2022/10/21 12:04:36;;;;;;;18.77;13.70;;;;;;;;;;5047075;28;20059;-82
2022/10/21 12:07:23;;;;;;;20.73;13.52;;;;;;;;;;5041803;28;20021;-81
2022/10/21 12:10:14;;;;;;;19.13;14.32;;;;;;;;;;5099484;23;20048;-82
2022/10/21 12:12:50;;;;;;;22.80;16.50;;;;;;;;;;5057658;28;20045;-82
2022/10/21 12:15:24;;;;;;;20.17;16.02;;;;;;;;;;5057554;28;20017;-82
2022/10/21 12:17:54;;;;;;;23.98;15.88;;;;;;;;;;5058416;28;20055;-82
2022/10/21 12:20:21;;;;;;;24.83;17.38;;;;;;;;;;5081298;22;20045;-81
2022/10/21 12:22:59;;;;;;;23.25;17.45;;;;;;;;;;5059954;28;20099;-82
2022/10/21 12:25:44;;;;;;;24.00;17.52;;;;;;;;;;5062204;28;20035;-82
2022/10/21 12:28:20;;;;;;;23.48;18.42;;;;;;;;;;5063390;28;20025;-83
2022/10/21 12:31:12;;;;;;;22.33;17.35;;;;;;;;;;5044690;28;20033;-84
2022/10/21 12:33:43;;;;;;;25.58;17.75;;;;;;;;;;5013057;23;20056;-80
2022/10/21 12:36:30;;;;;;;23.60;17.55;;;;;;;;;;5051379;28;20459;-80
2022/10/21 12:38:59;;;;;;;23.90;17.88;;;;;;;;;;5040693;28;20461;-79
2022/10/21 12:41:33;;;;;;;21.90;18.00;;;;;;;;;;5052678;28;20025;-79
2022/10/21 12:44:05;;;;;;;25.90;18.42;;;;;;;;;;5052882;28;20028;-79
2022/10/21 12:46:34;;;;;;;29.08;20.42;;;;;;;;;;5053937;28;20024;-79
2022/10/21 12:49:01;;;;;;;32.92;21.23;;;;;;;;;;5064174;28;20033;-80
2022/10/21 12:51:35;;;;;;;30.25;22.20;;;;;;;;;;5045237;28;20025;-79
2022/10/21 12:54:01;;;;;;;42.20;24.95;;;;;;;;;;5063699;28;20028;-79
2022/10/21 12:56:31;;;;;;;35.30;25.13;;;;;;;;;;5042242;28;20029;-78
2022/10/21 12:59:00;;;;;;;37.13;25.73;;;;;;;;;;5057222;28;20032;-81
2022/10/21 13:01:32;;;;;;;40.47;27.75;;;;;;;;;;5057909;28;20092;-80
2022/10/21 13:04:01;;;;;;;40.13;27.67;;;;;;;;;;5060795;28;20037;-80
2022/10/21 13:07:00;;;;;;;42.10;28.75;;;;;;;;;;5056629;28;20086;-79
2022/10/21 13:09:34;;;;;;;41.58;30.65;;;;;;;;;;5018407;28;20078;-80
2022/10/21 13:12:12;;;;;;;49.22;32.95;;;;;;;;;;5058550;28;20051;-80
2022/10/21 13:14:41;;;;;;;48.13;34.13;;;;;;;;;;5054506;28;20028;-81
2022/10/21 13:17:20;;;;;;;49.08;35.65;;;;;;;;;;5041100;28;20025;-80
2022/10/21 13:20:06;;;;;;;53.92;37.33;;;;;;;;;;5058100;28;20036;-81
2022/10/21 13:22:35;;;;;;;60.75;38.80;;;;;;;;;;5037479;28;20407;-80
2022/10/21 13:25:19;;;;;;;61.83;40.45;;;;;;;;;;5040439;28;20084;-80
2022/10/21 13:27:48;;;;;;;67.00;42.85;;;;;;;;;;5046579;28;20025;-79
2022/10/21 13:30:32;;;;;;;61.25;42.33;;;;;;;;;;5066336;28;20031;-82
2022/10/21 13:33:02;;;;;;;66.72;43.78;;;;;;;;;;5063827;28;20033;-79
2022/10/21 13:35:31;;;;;;;68.03;43.58;;;;;;;;;;5048777;28;20450;-82
2022/10/21 13:37:57;;;;;;;64.05;40.90;;;;;;;;;;5064789;28;20021;-81
2022/10/21 13:40:28;;;;;;;63.63;43.40;;;;;;;;;;5062167;28;20036;-79
2022/10/21 13:42:58;;;;;;;62.92;42.47;;;;;;;;;;5061326;28;20506;-79
2022/10/21 13:45:32;;;;;;;64.10;42.67;;;;;;;;;;5061831;28;20039;-80
2022/10/21 13:48:01;;;;;;;68.07;45.17;;;;;;;;;;5061124;28;20036;-80
2022/10/21 13:50:29;;;;;;;61.72;42.63;;;;;;;;;;5041930;28;20033;-80
2022/10/21 13:52:55;;;;;;;72.95;46.00;;;;;;;;;;5061617;28;20502;-80
2022/10/21 13:55:23;;;;;;;74.78;47.95;;;;;;;;;;5043417;28;20025;-81
2022/10/21 13:57:50;;;;;;;76.75;47.20;;;;;;;;;;5060483;28;20060;-80
2022/10/21 14:00:21;;;;;;;75.78;48.03;;;;;;;;;;5040607;28;20021;-80
2022/10/21 14:02:48;;;;;;;83.35;50.30;;;;;;;;;;5058460;28;20028;-79
2022/10/21 14:05:31;;;;;;;85.07;49.92;;;;;;;;;;5058449;28;20486;-80
2022/10/21 14:07:59;;;;;;;80.10;49.83;;;;;;;;;;5058470;28;20021;-77
2022/10/21 14:10:25;;;;;;;74.35;48.13;;;;;;;;;;5045341;28;20166;-80
2022/10/21 14:12:51;;;;;;;69.53;48.80;;;;;;;;;;5058405;28;20024;-81
2022/10/21 14:15:20;;;;;;;77.15;49.83;;;;;;;;;;5057956;28;20017;-81
2022/10/21 14:17:57;;;;;;;74.30;47.30;;;;;;;;;;5041748;28;20021;-81
2022/10/21 14:20:29;;;;;;;77.95;47.60;;;;;;;;;;5058951;28;20029;-80
2022/10/21 14:22:55;;;;;;;;;;;;;;;;;;5057060;28;20449;-80
2022/10/21 14:25:21;;;;;;;66.60;41.33;;;;;;;;;;5056263;28;19905;-80
2022/10/21 14:27:47;;;;;;;61.20;40.38;;;;;;;;;;5056646;28;20398;-79
2022/10/21 14:30:19;;;;;;;65.80;42.30;;;;;;;;;;5056662;28;20024;-81
2022/10/21 14:32:46;;;;;;;52.63;36.63;;;;;;;;;;5057785;28;20483;-78
2022/10/21 14:35:12;;;;;;;58.28;37.42;;;;;;;;;;5040331;28;20025;-80
2022/10/21 14:37:43;;;;;;;55.67;39.83;;;;;;;;;;5058413;28;20021;-82
2022/10/21 14:40:22;;;;;;;63.53;41.17;;;;;;;;;;5058198;28;20049;-80
2022/10/21 14:42:51;;;;;;;66.53;40.67;;;;;;;;;;5058340;28;20021;-81
2022/10/21 14:45:23;;;;;;;68.05;41.78;;;;;;;;;;5058574;28;20529;-81
2022/10/21 14:47:53;;;;;;;68.93;38.80;;;;;;;;;;5057797;28;20045;-81